Time;durP1;ratioP1;P1;durP2;ratioP2;P2;SDS_P1;SDS_P2;PMS_P1;PMS_P2;Temp;Humidity;BMP_temperature;BMP_pressure;BME280_temperature;BME280_humidity;BME280_pressure;Samples;Min_cycle;Max_cycle;Signal;HPM_P1;HPM_P2
2023/11/13 00:05:25;;;;;;;15.73;9.98;;;;;;;-147.20;100.00;63046.97;31549517;28;20033;-64
2023/11/13 00:20:25;;;;;;;13.10;10.05;;;;;;;-147.20;100.00;63046.97;31547715;28;20044;-63
2023/11/13 00:35:25;;;;;;;14.27;9.43;;;;;;;-147.20;100.00;63046.97;31546461;28;23734;-63
2023/11/13 00:50:26;;;;;;;11.13;8.20;;;;;;;-147.20;100.00;63046.97;31544868;28;23014;-65
2023/11/13 01:05:27;;;;;;;11.70;8.00;;;;;;;-147.20;100.00;63046.97;31543532;28;20029;-66
2023/11/13 01:20:27;;;;;;;16.92;9.90;;;;;;;-147.20;100.00;63046.97;31542292;28;20033;-64
2023/11/13 01:35:28;;;;;;;12.25;8.23;;;;;;;-147.20;100.00;63046.97;31540582;28;20036;-65
2023/11/13 01:50:28;;;;;;;11.63;7.70;;;;;;;-147.20;100.00;63046.97;31538939;28;20052;-64
2023/11/13 02:05:28;;;;;;;8.75;5.55;;;;;;;-147.20;100.00;63046.97;31538697;28;20033;-64
2023/11/13 02:20:31;;;;;;;9.77;5.03;;;;;;;-147.20;100.00;63046.97;31537745;28;20037;-64
2023/11/13 02:35:31;;;;;;;8.50;4.32;;;;;;;-147.20;100.00;63046.97;31536713;28;20116;-65
2023/11/13 02:50:31;;;;;;;7.55;5.05;;;;;;;-147.20;100.00;63046.97;31521686;28;20052;-65
2023/11/13 03:05:32;;;;;;;9.68;6.13;;;;;;;-147.20;100.00;63046.97;31533165;28;20029;-64
2023/11/13 03:20:32;;;;;;;10.68;6.05;;;;;;;-147.20;100.00;63046.97;31532587;28;20033;-67
2023/11/13 03:35:33;;;;;;;10.13;6.80;;;;;;;-147.20;100.00;63046.97;31534248;28;20108;-64
2023/11/13 03:50:33;;;;;;;11.48;7.20;;;;;;;-147.20;100.00;63046.97;31548517;28;20927;-64
2023/11/13 04:05:33;;;;;;;12.00;6.65;;;;;;;-147.20;100.00;63046.97;31545865;28;20040;-64
2023/11/13 04:20:34;;;;;;;9.93;6.78;;;;;;;-147.20;100.00;63046.97;31565563;28;20028;-63
2023/11/13 04:35:34;;;;;;;8.25;5.97;;;;;;;-147.20;100.00;63046.97;31553510;28;21485;-64
2023/11/13 04:50:34;;;;;;;8.85;5.05;;;;;;;-147.20;100.00;63046.97;31554394;28;20739;-64
2023/11/13 05:05:36;;;;;;;8.15;5.32;;;;;;;-147.20;100.00;63046.97;31519221;28;21350;-64
2023/11/13 05:20:45;;;;;;;8.52;5.13;;;;;;;-147.20;100.00;63046.97;31543472;28;20036;-64
2023/11/13 05:35:46;;;;;;;6.53;4.32;;;;;;;-147.20;100.00;63046.97;31410037;28;20076;-64
2023/11/13 05:50:46;;;;;;;6.68;4.60;;;;;;;-147.20;100.00;63046.97;31407530;28;20540;-65
2023/11/13 06:05:46;;;;;;;8.00;4.50;;;;;;;-147.20;100.00;63046.97;31407158;28;20106;-63
2023/11/13 06:20:48;;;;;;;6.22;3.88;;;;;;;-147.20;100.00;63046.97;31407513;28;20095;-63
2023/11/13 06:35:48;;;;;;;9.05;4.50;;;;;;;-147.20;100.00;63046.97;31407793;28;20037;-64
2023/11/13 06:50:49;;;;;;;6.78;3.50;;;;;;;-147.20;100.00;63046.97;31418028;28;20900;-64
2023/11/13 07:05:50;;;;;;;6.50;3.25;;;;;;;-147.20;100.00;63046.97;31426630;28;20268;-65
2023/11/13 07:20:53;;;;;;;12.57;4.10;;;;;;;-147.20;100.00;63046.97;31423501;28;20088;-64
2023/11/13 07:35:53;;;;;;;7.07;3.80;;;;;;;-147.20;100.00;63046.97;31423223;28;20088;-66
2023/11/13 07:50:54;;;;;;;6.57;4.03;;;;;;;-147.20;100.00;63046.97;31415836;28;20132;-64
2023/11/13 08:05:54;;;;;;;12.02;4.22;;;;;;;-147.20;100.00;63046.97;31419067;28;20137;-64
2023/11/13 08:20:55;;;;;;;10.80;4.00;;;;;;;-147.20;100.00;63046.97;31419061;28;20077;-64
2023/11/13 08:35:59;;;;;;;7.72;3.38;;;;;;;-147.20;100.00;63046.97;31414271;28;22441;-65
2023/11/13 08:51:00;;;;;;;6.05;2.85;;;;;;;-147.20;100.00;63046.97;31410966;28;20053;-66
2023/11/13 09:06:07;;;;;;;7.35;2.75;;;;;;;-147.20;100.00;63046.97;31411803;28;20501;-66
2023/11/13 09:21:11;;;;;;;5.07;2.38;;;;;;;-147.20;100.00;63046.97;31412052;28;20029;-65
2023/11/13 09:36:12;;;;;;;4.32;2.28;;;;;;;-147.20;100.00;63046.97;31408445;28;20029;-65
2023/11/13 09:51:13;;;;;;;4.53;2.33;;;;;;;-147.20;100.00;63046.97;31409992;28;20056;-65
2023/11/13 10:06:14;;;;;;;4.60;1.87;;;;;;;-147.20;100.00;63046.97;31409897;28;20041;-65
2023/11/13 10:21:33;;;;;;;7.38;2.25;;;;;;;-147.20;100.00;63046.97;31461204;28;20041;-69
2023/11/13 10:36:33;;;;;;;5.70;2.17;;;;;;;-147.20;100.00;63046.97;31531501;28;20064;-71
2023/11/13 10:51:35;;;;;;;1.88;0.73;;;;;;;-147.20;100.00;63046.97;31529084;28;20053;-63
2023/11/13 11:06:39;;;;;;;4.18;3.00;;;;;;;-147.20;100.00;63046.97;31520008;28;20029;-63
2023/11/13 11:21:44;;;;;;;4.85;1.92;;;;;;;-147.20;100.00;63046.97;31540563;28;20025;-63
2023/11/13 11:36:45;;;;;;;4.05;1.83;;;;;;;-147.20;100.00;63046.97;31534477;28;20040;-63
2023/11/13 11:51:45;;;;;;;4.75;1.58;;;;;;;-147.20;100.00;63046.97;31547143;28;20048;-63
2023/11/13 12:06:49;;;;;;;3.67;1.40;;;;;;;-147.20;100.00;63046.97;31546859;28;20207;-63
2023/11/13 12:21:50;;;;;;;2.70;1.50;;;;;;;-147.20;100.00;63046.97;31543528;28;20646;-62
2023/11/13 12:36:50;;;;;;;5.68;2.53;;;;;;;-147.20;100.00;63046.97;31541257;28;20307;-62
2023/11/13 12:51:50;;;;;;;3.45;1.95;;;;;;;-147.20;100.00;63046.97;31539449;28;20049;-62
2023/11/13 13:06:54;;;;;;;4.35;2.15;;;;;;;-147.20;100.00;63046.97;31540341;28;20025;-63
2023/11/13 13:21:54;;;;;;;4.40;2.17;;;;;;;-147.20;100.00;63046.97;31537263;28;20112;-62
2023/11/13 13:36:55;;;;;;;3.97;2.30;;;;;;;-147.20;100.00;63046.97;31534313;28;20029;-63
2023/11/13 13:51:58;;;;;;;4.28;2.67;;;;;;;-147.20;100.00;63046.97;31534690;28;20124;-63
2023/11/13 14:06:58;;;;;;;4.35;2.42;;;;;;;-147.20;100.00;63046.97;31535162;28;20448;-63
2023/11/13 14:21:58;;;;;;;4.70;2.60;;;;;;;-147.20;100.00;63046.97;31519564;28;20033;-62
2023/11/13 14:37:02;;;;;;;6.93;2.30;;;;;;;-147.20;100.00;63046.97;31528441;28;20033;-61
2023/11/13 14:52:04;;;;;;;3.97;2.75;;;;;;;-147.20;100.00;63046.97;31519702;28;20836;-64
2023/11/13 15:07:04;;;;;;;9.85;3.58;;;;;;;-147.20;100.00;63046.97;31527083;28;20461;-62
2023/11/13 15:22:04;;;;;;;11.30;4.90;;;;;;;-147.20;100.00;63046.97;31543286;28;20029;-62
2023/11/13 15:37:09;;;;;;;10.73;5.03;;;;;;;-147.20;100.00;63046.97;31441786;28;20037;-62
2023/11/13 15:52:11;;;;;;;;;;;;;;;-147.20;100.00;63046.97;31422386;28;20062;-62
2023/11/13 16:07:13;;;;;;;14.63;7.10;;;;;;;-147.20;100.00;63046.97;31422368;28;19940;-62
2023/11/13 16:22:13;;;;;;;14.98;7.47;;;;;;;-147.20;100.00;63046.97;31419027;28;20033;-62
2023/11/13 16:37:14;;;;;;;13.68;6.55;;;;;;;-147.20;100.00;63046.97;31418544;28;20079;-62
2023/11/13 16:52:16;;;;;;;14.52;7.03;;;;;;;-147.20;100.00;63046.97;31416838;28;20083;-62
2023/11/13 17:07:16;;;;;;;15.57;6.68;;;;;;;-147.20;100.00;63046.97;31415326;28;20497;-62
2023/11/13 17:22:17;;;;;;;11.73;6.10;;;;;;;-147.20;100.00;63046.97;31410946;28;20026;-62
2023/11/13 17:37:17;;;;;;;10.85;6.30;;;;;;;-147.20;100.00;63046.97;31410861;28;20824;-62
2023/11/13 17:52:18;;;;;;;14.05;5.75;;;;;;;-147.20;100.00;63046.97;31408736;28;20065;-62
2023/11/13 18:07:18;;;;;;;14.20;6.65;;;;;;;-147.20;100.00;63046.97;31408818;28;20035;-62
2023/11/13 18:22:19;;;;;;;14.65;7.53;;;;;;;-147.20;100.00;63046.97;31405696;28;20033;-63
2023/11/13 18:37:20;;;;;;;16.17;8.55;;;;;;;-147.20;100.00;63046.97;31407222;28;23593;-62
2023/11/13 18:52:23;;;;;;;13.30;7.50;;;;;;;-147.20;100.00;63046.97;31423772;28;20470;-62
2023/11/13 19:07:24;;;;;;;15.10;8.82;;;;;;;-147.20;100.00;63046.97;31426404;28;20057;-62
2023/11/13 19:22:25;;;;;;;17.33;9.02;;;;;;;-147.20;100.00;63046.97;31425388;28;20041;-63
2023/11/13 19:37:25;;;;;;;17.73;9.73;;;;;;;-147.20;100.00;63046.97;31423644;28;21738;-61
2023/11/13 19:52:26;;;;;;;14.48;8.38;;;;;;;-147.20;100.00;63046.97;31422143;28;20474;-62
2023/11/13 20:07:26;;;;;;;14.35;8.02;;;;;;;-147.20;100.00;63046.97;31422493;28;20033;-61
2023/11/13 20:22:26;;;;;;;17.25;8.50;;;;;;;-147.20;100.00;63046.97;31418508;28;20077;-62
2023/11/13 20:37:27;;;;;;;16.08;7.65;;;;;;;-147.20;100.00;63046.97;31417564;28;20581;-62
2023/11/13 20:52:27;;;;;;;13.05;7.72;;;;;;;-147.20;100.00;63046.97;31415161;28;20099;-61
2023/11/13 21:07:28;;;;;;;11.93;6.13;;;;;;;-147.20;100.00;63046.97;31478325;28;21997;-62
2023/11/13 21:22:28;;;;;;;12.02;5.85;;;;;;;-147.20;100.00;63046.97;31532405;28;20485;-61
2023/11/13 21:37:29;;;;;;;12.85;6.20;;;;;;;-147.20;100.00;63046.97;31530170;28;20353;-62
2023/11/13 21:52:29;;;;;;;10.57;5.82;;;;;;;-147.20;100.00;63046.97;31543233;28;20068;-63
2023/11/13 22:07:30;;;;;;;15.07;7.82;;;;;;;-147.20;100.00;63046.97;31535564;28;24434;-63
2023/11/13 22:22:30;;;;;;;13.93;8.18;;;;;;;-147.20;100.00;63046.97;31552238;28;20032;-62
2023/11/13 22:37:31;;;;;;;18.25;9.80;;;;;;;-147.20;100.00;63046.97;31579808;28;20955;-62
2023/11/13 22:52:31;;;;;;;13.52;7.95;;;;;;;-147.20;100.00;63046.97;31555147;28;21355;-62
2023/11/13 23:07:32;;;;;;;13.98;7.43;;;;;;;-147.20;100.00;63046.97;31561405;28;20036;-62
2023/11/13 23:22:33;;;;;;;15.25;8.57;;;;;;;-147.20;100.00;63046.97;31531564;28;20531;-62
2023/11/13 23:37:33;;;;;;;14.25;7.53;;;;;;;-147.20;100.00;63046.97;31565193;28;20112;-62
2023/11/13 23:52:34;;;;;;;14.57;7.75;;;;;;;-147.20;100.00;63046.97;31549624;28;20079;-62
